Time;durP1;ratioP1;P1;durP2;ratioP2;P2;SDS_P1;SDS_P2;PMS_P1;PMS_P2;Temp;Humidity;BMP_temperature;BMP_pressure;BME280_temperature;BME280_humidity;BME280_pressure;Samples;Min_cycle;Max_cycle;Signal;HPM_P1;HPM_P2
2022/08/24 00:01:09;;;;;;;4.20;1.80;;;;;;;19.07;57.44;101131.98;107823;1276;71169;-87
2022/08/24 00:03:38;;;;;;;6.10;2.00;;;;;;;19.03;57.68;101131.03;107906;1276;73460;-87
2022/08/24 00:06:06;;;;;;;5.00;2.00;;;;;;;18.98;57.92;101129.96;108089;1276;62043;-87
2022/08/24 00:08:34;;;;;;;6.20;2.80;;;;;;;18.92;58.09;101128.77;107938;1276;60921;-87
2022/08/24 00:11:01;;;;;;;4.90;1.90;;;;;;;18.89;58.20;101127.39;107944;1276;75423;-87
2022/08/24 00:13:31;;;;;;;3.90;1.40;;;;;;;18.87;58.43;101128.59;107926;1276;72210;-87
2022/08/24 00:16:05;;;;;;;4.70;1.60;;;;;;;18.83;58.76;101130.40;108038;1276;74074;-87
2022/08/24 00:18:32;;;;;;;5.60;1.50;;;;;;;18.80;58.69;101131.92;108109;1276;62350;-87
2022/08/24 00:21:00;;;;;;;5.00;2.00;;;;;;;18.77;58.81;101128.90;107929;1276;60482;-87
2022/08/24 00:23:28;;;;;;;4.70;1.70;;;;;;;18.75;58.97;101130.27;108127;1276;76024;-87
2022/08/24 00:25:56;;;;;;;4.40;1.60;;;;;;;18.74;59.05;101132.27;107782;1276;72603;-87
2022/08/24 00:28:23;;;;;;;4.00;1.60;;;;;;;18.73;59.23;101131.81;107913;1276;73230;-84
2022/08/24 00:30:50;;;;;;;4.30;1.70;;;;;;;18.72;59.27;101129.80;107893;1276;61944;-84
2022/08/24 00:33:17;;;;;;;4.70;2.00;;;;;;;18.71;59.38;101132.29;108099;1276;60319;-87
2022/08/24 00:35:44;;;;;;;3.20;1.50;;;;;;;18.70;59.52;101128.33;107885;1277;74822;-87
2022/08/24 00:38:12;;;;;;;4.30;1.70;;;;;;;18.67;59.70;101132.11;107939;1276;72807;-86
2022/08/24 00:40:43;;;;;;;8.60;2.50;;;;;;;18.65;59.87;101125.60;107869;1276;73909;-87
2022/08/24 00:43:11;;;;;;;4.60;1.90;;;;;;;18.63;59.78;101125.81;108074;1276;62312;-87
2022/08/24 00:45:49;;;;;;;5.50;1.90;;;;;;;18.61;59.95;101126.70;108048;1276;60304;-87
2022/08/24 00:48:29;;;;;;;8.30;2.00;;;;;;;18.57;60.09;101122.91;107913;1276;74798;-87
2022/08/24 00:51:24;;;;;;;4.30;1.80;;;;;;;18.54;60.17;101115.37;107797;1276;71340;-87
2022/08/24 00:53:57;;;;;;;7.00;1.90;;;;;;;18.49;60.29;101118.63;107698;1276;74048;-87
2022/08/24 00:56:33;;;;;;;6.50;1.60;;;;;;;18.45;60.53;101115.23;108108;1276;62000;-87
2022/08/24 00:59:06;;;;;;;5.70;1.60;;;;;;;18.40;60.80;101110.88;108022;1276;60812;-87
2022/08/24 01:01:34;;;;;;;4.30;1.60;;;;;;;18.35;60.93;101113.68;107850;1276;75104;-87
2022/08/24 01:04:04;;;;;;;5.10;1.50;;;;;;;18.31;61.03;101110.48;108169;1265;70599;-87
2022/08/24 01:06:32;;;;;;;3.70;1.80;;;;;;;18.28;61.13;101112.08;108145;1274;73257;-87
2022/08/24 01:08:59;;;;;;;4.70;1.70;;;;;;;18.23;61.33;101111.60;108130;1274;62621;-87
2022/08/24 01:11:29;;;;;;;4.00;1.80;;;;;;;18.20;61.45;101114.77;108226;1274;60840;-87
2022/08/24 01:14:01;;;;;;;6.20;1.90;;;;;;;18.17;61.72;101116.06;108177;1274;74742;-87
2022/08/24 01:19:29;;;;;;;5.30;1.90;;;;;;;18.11;61.91;101118.85;108307;1276;73342;-87
2022/08/24 01:22:10;;;;;;;5.60;1.80;;;;;;;18.08;62.15;101121.02;108232;1274;62713;-87
2022/08/24 01:24:37;;;;;;;4.40;1.80;;;;;;;18.06;62.33;101118.10;108264;1274;60522;-87
2022/08/24 01:27:09;;;;;;;4.80;1.70;;;;;;;18.06;62.42;101115.86;108254;1274;75051;-87
2022/08/24 01:29:37;;;;;;;5.20;1.80;;;;;;;18.03;62.40;101116.53;108248;1274;72357;-87
2022/08/24 01:32:06;;;;;;;4.30;1.80;;;;;;;18.02;62.39;101115.60;108192;1274;72815;-87
2022/08/24 01:34:35;;;;;;;6.10;1.70;;;;;;;18.01;62.46;101115.27;108423;1274;62152;-87
2022/08/24 01:39:33;;;;;;;5.20;1.80;;;;;;;17.98;62.57;101115.03;108076;1276;73734;-87
2022/08/24 01:42:01;;;;;;;5.10;2.00;;;;;;;17.95;62.75;101118.27;108082;1276;71358;-87
2022/08/24 01:44:32;;;;;;;5.10;1.90;;;;;;;17.92;62.91;101114.16;108015;1277;74433;-87
2022/08/24 01:47:00;;;;;;;5.00;1.80;;;;;;;17.87;62.95;101114.05;108062;1276;62005;-87
2022/08/24 01:49:34;;;;;;;5.40;1.80;;;;;;;17.84;63.12;101113.16;107987;1277;61916;-87
2022/08/24 01:52:05;;;;;;;6.10;1.90;;;;;;;17.81;63.21;101117.43;108079;1276;73836;-87
2022/08/24 01:54:32;;;;;;;5.30;2.10;;;;;;;17.78;63.42;101118.56;108079;1276;71332;-87
2022/08/24 01:56:59;;;;;;;6.60;2.10;;;;;;;17.76;63.48;101123.16;108090;1276;73802;-87
2022/08/24 01:59:27;;;;;;;6.90;2.50;;;;;;;17.72;63.74;101126.30;108066;1276;63260;-86
2022/08/24 02:02:00;;;;;;;4.70;2.00;;;;;;;17.70;63.94;101124.73;108035;1276;64466;-86
2022/08/24 02:04:27;;;;;;;6.20;2.10;;;;;;;17.67;64.01;101132.63;108049;1276;74940;-88
2022/08/24 02:06:54;;;;;;;6.20;1.90;;;;;;;17.65;64.06;101130.08;107955;1276;72541;-88
2022/08/24 02:09:21;;;;;;;6.00;1.80;;;;;;;17.63;64.21;101133.34;108081;1276;72919;-87
2022/08/24 02:11:51;;;;;;;6.80;2.00;;;;;;;17.61;64.24;101131.16;107852;1276;63800;-87
2022/08/24 02:14:18;;;;;;;5.80;1.70;;;;;;;17.60;64.40;101130.42;108034;1276;60557;-87
2022/08/24 02:16:46;;;;;;;6.40;2.00;;;;;;;17.58;64.48;101129.73;107942;1276;75103;-87
2022/08/24 02:19:13;;;;;;;4.80;1.90;;;;;;;17.57;64.53;101134.16;107914;1276;71379;-87
2022/08/24 02:21:40;;;;;;;5.00;2.00;;;;;;;17.56;64.61;101136.46;108046;1276;74172;-87
2022/08/24 02:24:07;;;;;;;5.20;1.90;;;;;;;17.55;64.69;101140.23;108050;1276;62033;-87
2022/08/24 02:26:34;;;;;;;5.40;1.70;;;;;;;17.52;64.71;101142.09;107955;1276;60723;-87
2022/08/24 02:29:01;;;;;;;6.10;2.20;;;;;;;17.50;64.88;101142.38;108042;1276;76171;-87
2022/08/24 02:31:30;;;;;;;4.70;1.90;;;;;;;17.48;64.91;101147.38;108021;1276;72505;-87
2022/08/24 02:33:57;;;;;;;5.10;1.80;;;;;;;17.45;65.19;101147.88;107937;1276;73141;-87
2022/08/24 02:36:24;;;;;;;4.50;1.70;;;;;;;17.43;65.28;101148.58;108044;1276;62272;-87
2022/08/24 02:38:53;;;;;;;4.20;1.80;;;;;;;17.41;65.33;101148.98;107982;1277;60572;-86
2022/08/24 02:41:23;;;;;;;3.30;2.00;;;;;;;17.40;65.46;101154.02;107819;1276;75925;-87
2022/08/24 02:43:51;;;;;;;6.90;2.00;;;;;;;17.38;65.59;101154.44;108072;1274;71476;-87
2022/08/24 02:46:22;;;;;;;6.20;2.30;;;;;;;17.37;65.76;101156.02;107964;1276;74015;-87
2022/08/24 02:48:49;;;;;;;7.10;2.20;;;;;;;17.36;65.96;101151.55;107934;1276;63435;-87
2022/08/24 02:51:32;;;;;;;4.60;1.90;;;;;;;17.35;66.08;101153.41;107939;1276;61673;-87
2022/08/24 02:54:11;;;;;;;4.20;1.90;;;;;;;17.35;66.30;101151.81;108024;1276;76041;-87
2022/08/24 02:56:38;;;;;;;4.00;1.90;;;;;;;17.34;66.35;101148.94;108003;1276;71561;-87
2022/08/24 02:59:05;;;;;;;6.10;2.20;;;;;;;17.33;66.36;101148.52;107997;1276;73200;-87
2022/08/24 03:01:33;;;;;;;6.10;2.00;;;;;;;17.32;66.57;101149.89;107929;1276;63370;-87
2022/08/24 03:04:00;;;;;;;4.50;2.00;;;;;;;17.34;66.58;101146.09;107907;1276;59554;-87
2022/08/24 03:06:28;;;;;;;6.00;2.00;;;;;;;17.35;66.65;101144.64;108069;1276;74952;-87
2022/08/24 03:08:56;;;;;;;3.30;2.00;;;;;;;17.38;66.71;101146.31;107934;1276;71872;-87
2022/08/24 03:11:24;;;;;;;7.10;2.30;;;;;;;17.38;66.68;101146.73;107897;1276;72997;-87
2022/08/24 03:13:56;;;;;;;6.00;2.00;;;;;;;17.39;66.74;101151.27;107955;1276;64149;-87
2022/08/24 03:16:23;;;;;;;6.60;2.30;;;;;;;17.40;66.61;101149.52;107959;1278;60626;-87
2022/08/24 03:18:50;;;;;;;5.20;2.00;;;;;;;17.40;66.66;101150.39;107848;1278;74954;-87
2022/08/24 03:21:18;;;;;;;5.20;1.90;;;;;;;17.39;66.63;101152.67;108041;1276;71087;-88
2022/08/24 03:23:45;;;;;;;4.20;2.20;;;;;;;17.39;66.61;101153.46;107944;1276;72894;-87
2022/08/24 03:26:13;;;;;;;5.80;2.40;;;;;;;17.37;66.52;101154.45;108021;1276;63240;-87
2022/08/24 03:28:40;;;;;;;7.30;2.00;;;;;;;17.34;66.70;101154.62;107926;1276;60509;-88
2022/08/24 03:31:11;;;;;;;5.20;2.00;;;;;;;17.31;66.76;101149.34;107972;1276;76488;-87
2022/08/24 03:33:38;;;;;;;5.70;2.30;;;;;;;17.28;66.88;101149.52;107936;1276;72153;-86
2022/08/24 03:36:06;;;;;;;6.90;2.30;;;;;;;17.23;67.15;101148.82;107947;1277;72794;-87
2022/08/24 03:38:40;;;;;;;4.50;2.10;;;;;;;17.19;67.15;101156.90;107994;1276;61408;-87
2022/08/24 03:41:07;;;;;;;5.00;2.40;;;;;;;17.15;67.30;101157.36;107911;1276;60999;-87
2022/08/24 03:43:47;;;;;;;5.80;2.20;;;;;;;17.12;67.35;101159.05;108015;1276;76325;-87
2022/08/24 03:46:20;;;;;;;5.50;2.30;;;;;;;17.09;67.52;101160.65;108046;1276;71138;-87
2022/08/24 03:48:51;;;;;;;4.00;2.20;;;;;;;17.06;67.63;101156.40;107848;1278;72216;-87
2022/08/24 03:51:22;;;;;;;3.80;2.10;;;;;;;17.04;67.71;101153.70;107956;1276;60963;-87
2022/08/24 03:53:50;;;;;;;5.20;2.30;;;;;;;17.00;67.80;101150.63;107817;1276;61903;-87
2022/08/24 03:56:17;;;;;;;4.40;2.20;;;;;;;16.94;68.07;101154.80;108030;1276;76011;-87
2022/08/24 03:58:45;;;;;;;3.50;2.10;;;;;;;16.89;68.13;101154.05;107974;1276;70395;-87
2022/08/24 04:01:12;;;;;;;4.60;2.20;;;;;;;16.86;68.21;101156.82;108029;1276;74843;-87
2022/08/24 04:03:42;;;;;;;5.30;2.30;;;;;;;16.82;68.37;101161.23;107939;1276;61304;-87
2022/08/24 04:06:10;;;;;;;4.70;2.30;;;;;;;16.81;68.50;101161.45;107863;1276;61536;-87
2022/08/24 04:08:40;;;;;;;5.20;2.40;;;;;;;16.79;68.64;101164.81;107780;1277;74421;-87
2022/08/24 04:11:14;;;;;;;5.30;2.70;;;;;;;16.79;68.71;101163.20;107812;1276;71536;-87
2022/08/24 04:13:41;;;;;;;4.90;2.40;;;;;;;16.79;68.73;101165.42;108086;1276;72636;-87
2022/08/24 04:16:13;;;;;;;6.30;2.40;;;;;;;16.78;68.92;101165.89;108024;1275;62210;-88
2022/08/24 04:18:41;;;;;;;3.90;2.20;;;;;;;16.77;68.85;101167.58;107999;1276;60342;-88
2022/08/24 04:21:23;;;;;;;6.90;2.40;;;;;;;16.77;68.85;101166.11;108034;1276;77537;-87
2022/08/24 04:23:51;;;;;;;6.20;2.40;;;;;;;16.75;68.94;101162.59;107963;1276;70387;-87
2022/08/24 04:26:20;;;;;;;5.30;2.60;;;;;;;16.71;69.11;101162.13;107791;1277;72959;-89
2022/08/24 04:29:09;;;;;;;5.00;2.30;;;;;;;16.67;69.30;101159.04;107937;1278;63243;-87
2022/08/24 04:31:37;;;;;;;7.40;2.60;;;;;;;16.65;69.52;101159.73;108050;1276;61325;-87
2022/08/24 04:34:05;;;;;;;5.70;2.60;;;;;;;16.62;69.55;101162.73;107985;1276;74676;-87
2022/08/24 04:36:32;;;;;;;5.00;2.40;;;;;;;16.61;69.70;101159.98;108057;1276;71859;-88
2022/08/24 04:39:00;;;;;;;6.40;2.60;;;;;;;16.59;69.75;101162.81;108035;1276;74503;-87
2022/08/24 04:41:27;;;;;;;3.90;2.40;;;;;;;16.58;69.86;101166.89;108128;1276;63494;-87
2022/08/24 04:43:59;;;;;;;6.50;2.30;;;;;;;16.59;69.89;101167.21;108105;1276;60320;-88
2022/08/24 04:46:27;;;;;;;6.70;2.60;;;;;;;16.60;69.96;101169.37;107885;1276;75882;-87
2022/08/24 04:48:54;;;;;;;5.80;2.60;;;;;;;16.61;70.00;101169.37;108089;1276;71396;-87
2022/08/24 04:51:21;;;;;;;8.30;2.40;;;;;;;16.63;70.11;101172.17;108139;1276;73233;-88
2022/08/24 04:53:50;;;;;;;8.80;2.70;;;;;;;16.63;70.23;101174.55;108014;1278;62345;-87
2022/08/24 04:56:20;;;;;;;11.60;3.00;;;;;;;16.64;70.17;101179.46;108019;1278;60962;-87
2022/08/24 04:58:47;;;;;;;5.90;2.60;;;;;;;16.65;70.22;101180.20;108133;1276;75774;-87
2022/08/24 05:01:18;;;;;;;7.30;2.50;;;;;;;16.67;70.31;101179.93;107845;1276;71550;-88
2022/08/24 05:03:49;;;;;;;5.60;2.50;;;;;;;16.70;70.39;101182.36;107851;1275;74166;-88
2022/08/24 05:06:18;;;;;;;6.30;2.50;;;;;;;16.75;70.38;101184.15;108026;1276;61927;-88
2022/08/24 05:08:46;;;;;;;7.30;2.70;;;;;;;16.79;70.58;101185.55;107852;1278;62015;-88
2022/08/24 05:11:14;;;;;;;8.10;3.10;;;;;;;16.83;70.63;101186.48;108085;1276;75050;-87
2022/08/24 05:13:42;;;;;;;5.50;2.60;;;;;;;16.89;70.68;101191.62;108024;1278;71905;-88
2022/08/24 05:16:14;;;;;;;5.90;2.90;;;;;;;16.95;70.67;101192.45;108008;1276;72700;-87
2022/08/24 05:18:41;;;;;;;6.20;2.40;;;;;;;17.01;70.68;101194.80;107953;1278;61950;-87
2022/08/24 05:21:11;;;;;;;5.70;2.60;;;;;;;17.10;70.52;101197.77;108144;1276;60321;-87
2022/08/24 05:23:39;;;;;;;6.60;2.80;;;;;;;17.19;70.28;101199.63;107964;1278;73688;-88
2022/08/24 05:26:14;;;;;;;6.80;2.70;;;;;;;17.27;69.99;101199.97;108040;1278;70283;-87
2022/08/24 05:28:42;;;;;;;5.50;2.60;;;;;;;17.34;69.78;101206.68;108088;1276;73026;-88
2022/08/24 05:31:13;;;;;;;6.30;2.70;;;;;;;17.43;69.60;101210.48;108109;1276;62125;-88
2022/08/24 05:33:41;;;;;;;5.50;2.30;;;;;;;17.51;69.47;101202.55;108146;1278;61632;-87
2022/08/24 05:36:16;;;;;;;6.20;2.80;;;;;;;17.60;69.43;101207.16;108215;1277;76108;-84
2022/08/24 05:38:44;;;;;;;7.00;2.80;;;;;;;17.70;69.20;101201.02;108185;1278;72478;-84
2022/08/24 05:41:10;;;;;;;4.30;2.30;;;;;;;17.80;68.85;101203.32;108061;1278;71753;-84
2022/08/24 05:43:38;;;;;;;6.80;2.50;;;;;;;17.89;68.61;101199.52;108166;1276;63792;-84
2022/08/24 05:46:05;;;;;;;5.70;2.40;;;;;;;17.98;68.47;101204.12;108181;1277;61505;-84
2022/08/24 05:48:34;;;;;;;5.40;3.20;;;;;;;18.07;68.45;101200.54;108081;1278;76568;-84
2022/08/24 05:51:02;;;;;;;6.50;2.30;;;;;;;18.17;68.14;101199.34;108163;1276;73061;-84
2022/08/24 05:53:32;;;;;;;6.60;2.50;;;;;;;18.27;68.11;101198.02;108061;1278;74043;-84
2022/08/24 05:56:09;;;;;;;4.80;3.00;;;;;;;18.40;67.80;101199.64;108118;1277;63229;-84
2022/08/24 05:58:37;;;;;;;5.60;2.60;;;;;;;18.52;67.49;101199.38;107959;1277;60614;-84
2022/08/24 06:01:06;;;;;;;4.90;2.30;;;;;;;18.63;67.39;101203.28;107997;1279;76719;-84
2022/08/24 06:03:33;;;;;;;7.10;2.50;;;;;;;18.76;67.00;101202.85;108039;1276;72769;-84
2022/08/24 06:06:06;;;;;;;7.00;2.80;;;;;;;18.90;66.94;101208.27;107925;1278;72926;-84
2022/08/24 06:08:45;;;;;;;7.10;2.50;;;;;;;19.07;66.51;101212.27;108224;1277;63119;-85
2022/08/24 06:11:29;;;;;;;6.00;2.70;;;;;;;19.23;66.06;101216.00;107924;1276;60910;-85
2022/08/24 06:14:00;;;;;;;7.20;2.70;;;;;;;19.39;65.61;101215.01;108202;1277;73934;-84
2022/08/24 06:16:28;;;;;;;7.70;3.00;;;;;;;19.52;65.23;101218.59;108169;1276;71245;-81
2022/08/24 06:18:55;;;;;;;5.50;2.70;;;;;;;19.66;65.01;101219.42;108164;1278;73124;-82
2022/08/24 06:21:24;;;;;;;8.30;2.90;;;;;;;19.83;64.63;101222.48;108107;1278;62267;-82
2022/08/24 06:23:54;;;;;;;8.00;3.10;;;;;;;19.98;64.17;101223.33;108154;1277;61740;-82
2022/08/24 06:28:32;;;;;;;9.70;3.80;;;;;;;20.25;63.46;101224.92;102787;1309;599173;-82
2022/08/24 06:31:06;;;;;;;9.50;3.90;;;;;;;20.35;63.00;101227.70;105220;1283;59295;-84
2022/08/24 06:33:33;;;;;;;7.80;3.30;;;;;;;20.48;62.80;101223.64;105406;1283;60337;-83
2022/08/24 06:36:00;;;;;;;8.30;3.80;;;;;;;20.60;62.50;101222.73;105893;1283;72965;-83
2022/08/24 06:38:29;;;;;;;8.50;3.30;;;;;;;20.72;62.21;101229.92;105456;1283;69822;-83
2022/08/24 06:40:57;;;;;;;7.00;3.50;;;;;;;20.84;61.90;101226.44;105374;1284;1243517;-82
2022/08/24 06:43:24;;;;;;;8.60;3.70;;;;;;;20.97;61.52;101229.73;107301;1281;62462;-82
2022/08/24 06:45:53;;;;;;;8.20;3.40;;;;;;;21.08;60.90;101232.59;107108;1281;61392;-83
2022/08/24 06:48:21;;;;;;;7.50;3.20;;;;;;;21.15;60.55;101235.33;106700;1281;73854;-87
2022/08/24 06:50:48;;;;;;;8.10;3.20;;;;;;;21.28;60.35;101234.71;107617;1281;71520;-87
2022/08/24 06:53:17;;;;;;;8.60;3.20;;;;;;;21.45;60.13;101235.95;107831;1281;73038;-87
2022/08/24 06:55:56;;;;;;;5.30;2.80;;;;;;;21.58;59.52;101235.29;108047;1281;62128;-86
2022/08/24 06:58:25;;;;;;;7.30;2.90;;;;;;;21.74;59.32;101238.19;107978;1281;60811;-88
2022/08/24 07:00:53;;;;;;;7.70;2.80;;;;;;;21.89;58.61;101238.40;107506;1281;73372;-82
2022/08/24 07:03:22;;;;;;;6.90;2.80;;;;;;;22.02;58.42;101240.47;106250;1274;71429;-82
2022/08/24 07:05:54;;;;;;;4.90;2.60;;;;;;;22.15;58.39;101243.96;105031;1286;72200;-83
2022/08/24 07:08:22;;;;;;;8.20;2.70;;;;;;;22.22;57.67;101244.08;105695;1284;59768;-83
2022/08/24 07:10:51;;;;;;;7.00;2.60;;;;;;;22.33;57.64;101246.42;105529;1284;60303;-82
2022/08/24 07:13:18;;;;;;;7.40;2.50;;;;;;;22.49;57.27;101242.14;105269;1283;73665;-80
2022/08/24 07:15:46;;;;;;;8.60;2.80;;;;;;;22.59;56.74;101246.98;104475;1286;70222;-84
2022/08/24 07:18:14;;;;;;;6.20;2.80;;;;;;;22.68;56.57;101249.20;105047;1283;72402;-82
2022/08/24 07:20:41;;;;;;;10.90;2.70;;;;;;;22.79;56.54;101245.73;104963;1283;60665;-82
2022/08/24 07:23:10;;;;;;;6.10;2.40;;;;;;;22.92;56.01;101245.35;105231;1286;60362;-81
2022/08/24 07:25:37;;;;;;;6.10;2.40;;;;;;;23.03;55.64;101250.71;104952;1283;74526;-82
2022/08/24 07:28:07;;;;;;;7.40;2.80;;;;;;;23.13;55.62;101255.92;105128;1283;71187;-81
2022/08/24 07:30:37;;;;;;;7.10;2.60;;;;;;;23.20;55.21;101256.37;105545;1277;72830;-81
2022/08/24 07:33:04;;;;;;;7.00;2.40;;;;;;;23.31;55.10;101257.58;104990;1283;60401;-82
2022/08/24 07:35:32;;;;;;;8.60;2.60;;;;;;;23.47;54.90;101256.79;104675;1284;59626;-81
2022/08/24 07:38:03;;;;;;;6.40;2.60;;;;;;;23.62;54.39;101258.38;104845;1283;72387;-81
2022/08/24 07:40:32;;;;;;;7.10;2.60;;;;;;;23.76;53.79;101262.92;104785;1283;71474;-82
2022/08/24 07:43:22;;;;;;;7.00;2.60;;;;;;;23.90;53.46;101262.91;106612;1277;74204;-80
2022/08/24 07:45:50;;;;;;;6.20;2.40;;;;;;;24.05;53.36;101266.09;105647;1277;59621;-81
2022/08/24 07:48:17;;;;;;;6.10;2.80;;;;;;;24.21;52.47;101269.48;105928;1277;60601;-80
2022/08/24 07:50:45;;;;;;;6.80;2.90;;;;;;;24.34;51.99;101266.77;105796;1277;73573;-80
2022/08/24 07:53:12;;;;;;;6.60;2.80;;;;;;;24.45;51.70;101266.74;105901;1277;70954;-79
2022/08/24 07:55:53;;;;;;;7.70;2.80;;;;;;;24.62;51.05;101267.34;105966;1277;75416;-81
2022/08/24 07:58:20;;;;;;;7.20;2.70;;;;;;;24.80;50.81;101268.39;106579;1277;61999;-81
2022/08/24 08:00:47;;;;;;;9.70;2.50;;;;;;;24.96;49.84;101274.83;106052;1277;60572;-79
2022/08/24 08:03:14;;;;;;;8.10;2.80;;;;;;;25.04;49.29;101269.77;106039;1277;71980;-78
2022/08/24 08:05:41;;;;;;;6.80;2.50;;;;;;;25.15;49.52;101266.59;106233;1277;71772;-78
2022/08/24 08:08:09;;;;;;;7.10;2.40;;;;;;;25.27;49.26;101271.39;105986;1277;73399;-79
2022/08/24 08:10:35;;;;;;;6.30;1.80;;;;;;;25.39;48.71;101271.44;106638;1277;61251;-80
2022/08/24 08:13:04;;;;;;;6.50;2.30;;;;;;;25.44;48.09;101277.12;106804;1277;61498;-78
2022/08/24 08:15:35;;;;;;;5.40;1.90;;;;;;;25.47;47.47;101278.67;106971;1277;72190;-80
2022/08/24 08:18:01;;;;;;;9.60;3.00;;;;;;;25.45;47.01;101277.29;106482;1277;71199;-79
2022/08/24 08:20:28;;;;;;;5.30;2.30;;;;;;;25.56;47.90;101278.08;106392;1277;72706;-82
2022/08/24 08:25:40;;;;;;;3.70;1.90;;;;;;;25.95;46.87;101275.63;106440;1277;62276;-79
2022/08/24 08:28:14;;;;;;;7.00;2.40;;;;;;;26.12;46.29;101272.56;106250;1277;73283;-79
2022/08/24 08:30:52;;;;;;;4.40;1.90;;;;;;;26.25;45.58;101274.67;105600;1277;72641;-80
2022/08/24 08:33:19;;;;;;;4.50;1.90;;;;;;;26.34;45.08;101274.93;106390;1279;74663;-80
2022/08/24 08:35:48;;;;;;;8.30;2.00;;;;;;;26.38;44.90;101272.61;105905;1279;60937;-78
2022/08/24 08:38:15;;;;;;;5.90;2.10;;;;;;;26.46;44.74;101271.80;105600;1280;61666;-80
2022/08/24 08:41:20;;;;;;;5.50;2.00;;;;;;;26.50;44.42;101270.52;105898;1278;73175;-80
2022/08/24 08:44:11;;;;;;;4.40;1.80;;;;;;;26.50;43.81;101267.20;105690;1277;70435;-78
2022/08/24 08:47:02;;;;;;;4.10;1.70;;;;;;;26.60;44.02;101268.78;105426;1278;72942;-80
2022/08/24 08:49:47;;;;;;;5.10;2.50;;;;;;;26.69;43.79;101271.30;105594;1280;63388;-80
2022/08/24 08:52:51;;;;;;;8.80;2.30;;;;;;;26.87;43.41;101264.08;106142;1277;60453;-79
2022/08/24 08:55:27;;;;;;;5.80;2.20;;;;;;;27.04;43.46;101266.01;106181;1279;73748;-79
2022/08/24 08:58:03;;;;;;;4.90;2.30;;;;;;;27.17;43.18;101258.93;105750;1277;70747;-79
2022/08/24 09:00:47;;;;;;;5.70;2.00;;;;;;;27.26;42.15;101256.40;105941;1278;73853;-78
2022/08/24 09:03:36;;;;;;;4.70;2.30;;;;;;;27.32;42.03;101255.02;106232;1279;60776;-79
2022/08/24 09:06:21;;;;;;;5.20;2.10;;;;;;;27.46;42.04;101254.68;105748;1277;60208;-79
2022/08/24 09:09:25;;;;;;;6.40;2.20;;;;;;;27.63;41.84;101253.17;105751;1279;73387;-80
2022/08/24 09:12:05;;;;;;;3.60;1.60;;;;;;;27.74;40.57;101251.91;107670;1278;71339;-80
2022/08/24 09:14:43;;;;;;;5.20;1.90;;;;;;;27.76;40.50;101255.33;107945;1278;72730;-79
2022/08/24 09:17:13;;;;;;;4.60;1.70;;;;;;;27.80;40.34;101253.47;107677;1279;60357;-79
2022/08/24 09:20:21;;;;;;;4.50;1.40;;;;;;;27.86;39.22;101253.25;106714;1277;59550;-80
2022/08/24 09:23:02;;;;;;;4.10;1.50;;;;;;;27.91;39.87;101251.45;105667;1280;73315;-79
2022/08/24 09:25:53;;;;;;;5.30;1.60;;;;;;;27.98;39.13;101247.02;105650;1279;72685;-79
2022/08/24 09:28:39;;;;;;;4.00;1.70;;;;;;;27.97;38.51;101246.30;105509;1280;72004;-78
2022/08/24 09:31:21;;;;;;;3.50;1.50;;;;;;;27.99;38.90;101248.42;105648;1279;60691;-78
2022/08/24 09:34:17;;;;;;;6.10;1.60;;;;;;;28.07;38.74;101251.44;105768;1278;60319;-78
2022/08/24 09:37:16;;;;;;;7.00;1.80;;;;;;;28.18;38.98;101249.81;105299;1280;74071;-79
2022/08/24 09:39:47;;;;;;;3.50;1.70;;;;;;;28.32;38.47;101250.17;106805;1278;72670;-79
2022/08/24 09:42:31;;;;;;;5.60;1.70;;;;;;;28.38;38.72;101251.96;105609;1277;72418;-78
2022/08/24 09:45:35;;;;;;;4.10;1.40;;;;;;;28.50;38.07;101252.29;105836;1279;60399;-78
2022/08/24 09:48:19;;;;;;;4.60;1.60;;;;;;;28.58;37.73;101245.14;105521;1278;61579;-78
2022/08/24 09:51:07;;;;;;;3.70;1.50;;;;;;;28.71;38.03;101249.05;106181;1279;75019;-79
2022/08/24 09:54:04;;;;;;;3.90;1.40;;;;;;;28.81;37.57;101244.98;106091;1279;73232;-80
2022/08/24 09:56:56;;;;;;;3.90;1.20;;;;;;;28.76;35.89;101246.67;105312;1280;72867;-80
2022/08/24 09:59:56;;;;;;;5.70;1.50;;;;;;;28.82;36.45;101245.86;106122;1280;59848;-79
2022/08/24 10:02:48;;;;;;;3.70;1.40;;;;;;;28.97;36.37;101244.77;105893;1279;60967;-78
2022/08/24 10:05:43;;;;;;;4.50;1.60;;;;;;;29.10;36.80;101244.73;105623;1278;73522;-79
2022/08/24 10:08:52;;;;;;;5.00;1.50;;;;;;;29.20;35.44;101245.96;105747;1278;71050;-78
2022/08/24 10:11:24;;;;;;;5.30;1.80;;;;;;;29.31;35.69;101242.97;104963;1286;72967;-79
2022/08/24 10:14:08;;;;;;;6.40;2.10;;;;;;;29.41;35.47;101241.77;104128;1286;60365;-78
2022/08/24 10:16:51;;;;;;;4.10;1.50;;;;;;;29.54;35.75;101239.78;105109;1280;62136;-78
2022/08/24 10:19:18;;;;;;;4.70;1.60;;;;;;;29.62;35.14;101234.94;106144;1277;74065;-81
2022/08/24 10:22:08;;;;;;;4.40;1.60;;;;;;;29.66;33.65;101233.96;105469;1277;72068;-78
2022/08/24 10:24:57;;;;;;;5.70;1.50;;;;;;;29.74;34.07;101234.89;105621;1280;73058;-79
2022/08/24 10:28:09;;;;;;;4.80;1.40;;;;;;;29.85;33.71;101235.92;105216;1280;60906;-79
2022/08/24 10:30:53;;;;;;;4.80;1.30;;;;;;;29.90;33.60;101230.55;105350;1280;60708;-80
2022/08/24 10:33:30;;;;;;;5.30;1.60;;;;;;;29.97;33.32;101224.94;105419;1280;74542;-79
2022/08/24 10:36:29;;;;;;;5.20;1.40;;;;;;;30.06;33.31;101226.52;105949;1277;72752;-79
2022/08/24 10:42:03;;;;;;;2.70;1.00;;;;;;;30.13;32.31;101222.05;106436;1275;60834;-80
2022/08/24 10:44:36;;;;;;;3.70;1.30;;;;;;;30.10;32.72;101220.95;105621;1275;60560;-80
2022/08/24 10:47:18;;;;;;;6.00;1.80;;;;;;;30.11;32.70;101221.05;105838;1277;72313;-78
2022/08/24 10:50:07;;;;;;;3.50;1.30;;;;;;;30.23;32.96;101221.04;107963;1277;71357;-79
2022/08/24 10:53:03;;;;;;;4.10;1.20;;;;;;;30.36;31.84;101220.55;108133;1277;74055;-79
2022/08/24 10:55:33;;;;;;;4.60;1.30;;;;;;;30.52;30.71;101219.67;108143;1276;59933;-80
2022/08/24 10:58:09;;;;;;;6.30;1.40;;;;;;;30.66;31.12;101215.84;108054;1276;60355;-80
2022/08/24 11:00:39;;;;;;;2.60;1.10;;;;;;;30.76;31.63;101217.21;106481;1277;74060;-80
2022/08/24 11:03:21;;;;;;;4.60;1.40;;;;;;;30.71;31.51;101212.86;105213;1277;70546;-79
2022/08/24 11:05:55;;;;;;;3.90;1.40;;;;;;;30.82;32.06;101212.90;106392;1276;72838;-79
2022/08/24 11:08:29;;;;;;;3.30;1.30;;;;;;;30.92;31.28;101211.08;106393;1277;60673;-79
2022/08/24 11:11:08;;;;;;;4.20;1.30;;;;;;;30.99;31.59;101207.17;105905;1277;60650;-82
2022/08/24 11:14:06;;;;;;;5.00;1.30;;;;;;;31.01;31.30;101212.84;105321;1277;74832;-79
2022/08/24 11:16:40;;;;;;;4.40;1.30;;;;;;;31.08;31.10;101211.50;106100;1277;71351;-80
2022/08/24 11:19:32;;;;;;;3.90;1.20;;;;;;;31.18;31.26;101204.52;105856;1277;73067;-80
2022/08/24 11:22:03;;;;;;;3.50;1.10;;;;;;;31.22;31.06;101199.30;106198;1276;61061;-80
2022/08/24 11:24:53;;;;;;;2.90;1.10;;;;;;;31.17;29.79;101204.98;105408;1277;61643;-81
2022/08/24 11:27:32;;;;;;;3.70;1.10;;;;;;;31.14;29.97;101199.61;105792;1277;75239;-81
2022/08/24 11:30:19;;;;;;;3.50;1.10;;;;;;;31.06;29.69;101200.75;105116;1277;72853;-79
2022/08/24 11:32:49;;;;;;;4.60;1.00;;;;;;;31.22;30.79;101197.81;105484;1277;74088;-79
2022/08/24 11:35:24;;;;;;;2.00;1.10;;;;;;;31.38;30.06;101198.96;105717;1277;60538;-79
2022/08/24 11:37:54;;;;;;;3.00;1.10;;;;;;;31.44;29.90;101198.91;105904;1277;61576;-80
2022/08/24 11:40:32;;;;;;;3.00;1.00;;;;;;;31.55;29.04;101195.55;105709;1277;75063;-81
2022/08/24 11:43:12;;;;;;;3.40;1.20;;;;;;;31.65;29.48;101192.98;105355;1276;71626;-79
2022/08/24 11:45:54;;;;;;;3.70;1.30;;;;;;;31.84;29.48;101190.94;105690;1277;72951;-79
2022/08/24 11:48:46;;;;;;;4.60;1.10;;;;;;;32.02;29.32;101194.08;105568;1277;61553;-78
2022/08/24 11:51:20;;;;;;;2.20;1.00;;;;;;;32.16;28.84;101201.42;106009;1276;60642;-79
2022/08/24 11:54:28;;;;;;;6.30;1.40;;;;;;;32.24;29.19;101198.98;106126;1276;75466;-80
2022/08/24 11:59:52;;;;;;;2.30;1.00;;;;;;;32.50;28.00;101197.23;106349;1278;75492;-78
2022/08/24 12:02:46;;;;;;;3.40;1.20;;;;;;;32.71;28.73;101194.55;105912;1278;61600;-80